Albert Maersk — OUOW2 — position and weather

sailwx.info

Track history (hours):
 
Tides and Currents Weather Stations Pressure Air Temp Water Temp Dewpoint Dewpoint Depression Visibility Wind Speed Wind Dir Waves Ship Positions

Albert Maersk

Last reported at 2017-Apr-27 00:19 UTC. Time now 2017-Apr-28 00:33 UTC.
Position N 39°52' W 029°46'.

MMSI: 220259928.

Date/timePositionNaut miles runAvg speedWind from/ knotsBaromVisibWave heightAir tempDewpointWater temp
2017-Apr-27 00:19N 39°52' W 029°46'619.2
2017-Apr-27 00:00N 39°51' W 029°38'1819.5
2017-Apr-26 23:05N 39°49' W 029°15'119.5
2017-Apr-26 23:00N 39°49' W 029°13'1019.5
2017-Apr-26 22:30N 39°48' W 029°01'1019.7
2017-Apr-26 22:00N 39°47' W 028°48'1019.4
2017-Apr-26 21:30N 39°45' W 028°35'1019.3
2017-Apr-26 21:00N 39°44' W 028°23'1019.4
2017-Apr-26 20:30N 39°43' W 028°10'1019.2
2017-Apr-26 20:00N 39°42' W 027°58'1019.4
2017-Apr-26 19:30N 39°41' W 027°45'1019.5
2017-Apr-26 19:00N 39°40' W 027°33'85220.3
2017-Apr-25 01:05N 36°28' W 009°59'20920.3
2017-Apr-24 14:47N 35°58' W 005°42'519.1
2017-Apr-24 14:30N 35°58' W 005°36'2019.8
2017-Apr-24 13:31N 36°04' W 005°13'21521.0
2017-Apr-24 03:19N 36°38' W 000°50'1120.7
2017-Apr-24 02:46N 36°40' W 000°36'1020.7
2017-Apr-24 02:18N 36°42' W 000°24'1420.5
2017-Apr-24 01:37N 36°45' W 000°07'320.4
2017-Apr-24 01:29N 36°45' W 000°04'1020.5
2017-Apr-24 01:00N 36°46' E 000°09'1020.4
2017-Apr-24 00:30N 36°48' E 000°21'2420.4
2017-Apr-23 23:19N 36°52' E 000°51'620.3
2017-Apr-23 23:00N 36°53' E 000°59'1220.4
2017-Apr-23 22:26N 36°55' E 001°13'920.7
2017-Apr-23 22:00N 36°56' E 001°24'2320.5
2017-Apr-23 20:53N 36°60' E 001°53'820.5
2017-Apr-23 20:30N 37°01' E 002°02'1121.1
2017-Apr-23 20:00N 37°02' E 002°15'1920.9
2017-Apr-23 19:07N 37°05' E 002°38'320.9
2017-Apr-23 18:58N 37°06' E 002°42'1220.5
2017-Apr-23 18:23N 37°07' E 002°57'820.8
2017-Apr-23 17:59N 37°08' E 003°07'1020.8
2017-Apr-23 17:30N 37°10' E 003°20'1020.7
2017-Apr-23 17:00N 37°11' E 003°33'1020.8
2017-Apr-23 16:30N 37°12' E 003°45'1120.6
2017-Apr-23 16:00N 37°13' E 003°59'1020.5
2017-Apr-23 15:30N 37°15' E 004°11'1020.7
2017-Apr-23 15:00N 37°16' E 004°24'2020.4
2017-Apr-23 14:01N 37°18' E 004°49'1020.6
2017-Apr-23 13:30N 37°20' E 005°02'1020.5
2017-Apr-23 13:00N 37°21' E 005°15'1020.6
2017-Apr-23 12:30N 37°22' E 005°28'1820.5
2017-Apr-23 11:38N 37°24' E 005°50'420.4
2017-Apr-23 11:27N 37°25' E 005°55'920.5
2017-Apr-23 11:00N 37°26' E 006°07'35719.6
2017-Apr-22 16:49N 36°46' E 013°32'1119.8
2017-Apr-22 16:16N 36°44' E 013°45'519.6
2017-Apr-22 16:00N 36°42' E 013°51'1019.4
2017-Apr-22 15:30N 36°39' E 014°02'1019.5
2017-Apr-22 15:00N 36°35' E 014°13'1019.6
2017-Apr-22 14:31N 36°31' E 014°24'2019.4
2017-Apr-22 13:30N 36°25' E 014°47'79020.1
2017-Apr-20 22:06N 32°27' E 030°01'220.2
2017-Apr-20 22:01N 32°26' E 030°03'1020.2
2017-Apr-20 21:30N 32°22' E 030°14'1220.5
2017-Apr-20 20:56N 32°18' E 030°27'1520.3
2017-Apr-20 20:11N 32°12' E 030°44'520.2
2017-Apr-20 19:55N 32°10' E 030°49'920.2
2017-Apr-20 19:30N 32°07' E 030°59'1020.3
2017-Apr-20 19:00N 32°04' E 031°10'1020.2
2017-Apr-20 18:30N 31°60' E 031°21'1020.2
2017-Apr-20 18:01N 31°55' E 031°31'1020.2
2017-Apr-20 17:31N 31°51' E 031°42'1020.1
2017-Apr-20 17:01N 31°48' E 031°53'1019.3
2017-Apr-20 16:31N 31°42' E 032°02'1019.3
2017-Apr-20 16:01N 31°35' E 032°10'1019.0
2017-Apr-20 15:30N 31°30' E 032°19'714.8
2017-Apr-20 15:01N 31°23' E 032°23'1211.9
2017-Apr-20 14:00N 31°12' E 032°20'4 8.7
2017-Apr-20 13:30N 31°07' E 032°19'5 9.1
2017-Apr-20 12:58N 31°03' E 032°19'5 9.5
2017-Apr-20 12:28N 30°58' E 032°19'5 9.3
2017-Apr-20 11:57N 30°53' E 032°19'  
Track history (hours):
 
Tides and Currents Weather Stations Pressure Air Temp Water Temp Dewpoint Dewpoint Depression Visibility Wind Speed Wind Dir Waves Ship Positions

Albert Maersk

Last reported at 2017-Apr-27 00:19 UTC. Time now 2017-Apr-28 00:33 UTC.
Position N 39°52' W 029°46'.

MMSI: 220259928.

Date/timePositionNaut miles runAvg speedWind from/ knotsBaromVisibWave heightAir tempDewpointWater temp
2017-Apr-27 00:19N 39°52' W 029°46'619.2
2017-Apr-27 00:00N 39°51' W 029°38'1819.5
2017-Apr-26 23:05N 39°49' W 029°15'119.5
2017-Apr-26 23:00N 39°49' W 029°13'1019.5
2017-Apr-26 22:30N 39°48' W 029°01'1019.7
2017-Apr-26 22:00N 39°47' W 028°48'1019.4
2017-Apr-26 21:30N 39°45' W 028°35'1019.3
2017-Apr-26 21:00N 39°44' W 028°23'1019.4
2017-Apr-26 20:30N 39°43' W 028°10'1019.2
2017-Apr-26 20:00N 39°42' W 027°58'1019.4
2017-Apr-26 19:30N 39°41' W 027°45'1019.5
2017-Apr-26 19:00N 39°40' W 027°33'85220.3
2017-Apr-25 01:05N 36°28' W 009°59'20920.3
2017-Apr-24 14:47N 35°58' W 005°42'519.1
2017-Apr-24 14:30N 35°58' W 005°36'2019.8
2017-Apr-24 13:31N 36°04' W 005°13'21521.0
2017-Apr-24 03:19N 36°38' W 000°50'1120.7
2017-Apr-24 02:46N 36°40' W 000°36'1020.7
2017-Apr-24 02:18N 36°42' W 000°24'1420.5
2017-Apr-24 01:37N 36°45' W 000°07'320.4
2017-Apr-24 01:29N 36°45' W 000°04'1020.5
2017-Apr-24 01:00N 36°46' E 000°09'1020.4
2017-Apr-24 00:30N 36°48' E 000°21'2420.4
2017-Apr-23 23:19N 36°52' E 000°51'620.3
2017-Apr-23 23:00N 36°53' E 000°59'1220.4
2017-Apr-23 22:26N 36°55' E 001°13'920.7
2017-Apr-23 22:00N 36°56' E 001°24'2320.5
2017-Apr-23 20:53N 36°60' E 001°53'820.5
2017-Apr-23 20:30N 37°01' E 002°02'1121.1
2017-Apr-23 20:00N 37°02' E 002°15'1920.9
2017-Apr-23 19:07N 37°05' E 002°38'320.9
2017-Apr-23 18:58N 37°06' E 002°42'1220.5
2017-Apr-23 18:23N 37°07' E 002°57'820.8
2017-Apr-23 17:59N 37°08' E 003°07'1020.8
2017-Apr-23 17:30N 37°10' E 003°20'1020.7
2017-Apr-23 17:00N 37°11' E 003°33'1020.8
2017-Apr-23 16:30N 37°12' E 003°45'1120.6
2017-Apr-23 16:00N 37°13' E 003°59'1020.5
2017-Apr-23 15:30N 37°15' E 004°11'1020.7
2017-Apr-23 15:00N 37°16' E 004°24'2020.4
2017-Apr-23 14:01N 37°18' E 004°49'1020.6
2017-Apr-23 13:30N 37°20' E 005°02'1020.5
2017-Apr-23 13:00N 37°21' E 005°15'1020.6
2017-Apr-23 12:30N 37°22' E 005°28'1820.5
2017-Apr-23 11:38N 37°24' E 005°50'420.4
2017-Apr-23 11:27N 37°25' E 005°55'920.5
2017-Apr-23 11:00N 37°26' E 006°07'35719.6
2017-Apr-22 16:49N 36°46' E 013°32'1119.8
2017-Apr-22 16:16N 36°44' E 013°45'519.6
2017-Apr-22 16:00N 36°42' E 013°51'1019.4
2017-Apr-22 15:30N 36°39' E 014°02'1019.5
2017-Apr-22 15:00N 36°35' E 014°13'1019.6
2017-Apr-22 14:31N 36°31' E 014°24'2019.4
2017-Apr-22 13:30N 36°25' E 014°47'79020.1
2017-Apr-20 22:06N 32°27' E 030°01'220.2
2017-Apr-20 22:01N 32°26' E 030°03'1020.2
2017-Apr-20 21:30N 32°22' E 030°14'1220.5
2017-Apr-20 20:56N 32°18' E 030°27'1520.3
2017-Apr-20 20:11N 32°12' E 030°44'520.2
2017-Apr-20 19:55N 32°10' E 030°49'920.2
2017-Apr-20 19:30N 32°07' E 030°59'1020.3
2017-Apr-20 19:00N 32°04' E 031°10'1020.2
2017-Apr-20 18:30N 31°60' E 031°21'1020.2
2017-Apr-20 18:01N 31°55' E 031°31'1020.2
2017-Apr-20 17:31N 31°51' E 031°42'1020.1
2017-Apr-20 17:01N 31°48' E 031°53'1019.3
2017-Apr-20 16:31N 31°42' E 032°02'1019.3
2017-Apr-20 16:01N 31°35' E 032°10'1019.0
2017-Apr-20 15:30N 31°30' E 032°19'714.8
2017-Apr-20 15:01N 31°23' E 032°23'1211.9
2017-Apr-20 14:00N 31°12' E 032°20'4 8.7
2017-Apr-20 13:30N 31°07' E 032°19'5 9.1
2017-Apr-20 12:58N 31°03' E 032°19'5 9.5
2017-Apr-20 12:28N 30°58' E 032°19'5 9.3
2017-Apr-20 11:57N 30°53' E 032°19'  

Dump ship's entire track history